ACA12 CYOW-CYYC
Flight info
| Callsign | ACA12 |
|---|---|
| Flight time | N/A |
| Altitude | 34000 |
| Route | DCT LETAK DCT TVC DCT KP90K DCT KP12A DCT PEMDU Q832 VESDO EBGAL7 |
| Aircraft | A321/M-SDE3FGHIRWY/LB1 |
Departure
| Time | N/A |
|---|---|
| Airport | Ottawa Macdonald-Cartier International Airport (CYOW) |
Arrival
| Time | 2026-05-03 23:19 |
|---|---|
| Airport | Calgary International Airport (CYYC) |
| Time | Latitude | Longitude | Altitude | Speed | Heading |
|---|---|---|---|---|---|
| 2026-05-03 21:29 | 46.36631 | -96.23728 | 33765 ft | 407 kts | 288° |
| 2026-05-03 21:29 | 46.37370 | -96.27688 | 33771 ft | 407 kts | 288° |
| 2026-05-03 21:29 | 46.38845 | -96.35598 | 33777 ft | 407 kts | 288° |
| 2026-05-03 21:30 | 46.40316 | -96.43525 | 33859 ft | 410 kts | 288° |
| 2026-05-03 21:30 | 46.41056 | -96.47518 | 34048 ft | 412 kts | 287° |
| 2026-05-03 21:30 | 46.41796 | -96.51526 | 34276 ft | 412 kts | 287° |
| 2026-05-03 21:31 | 46.42536 | -96.55543 | 34521 ft | 412 kts | 287° |
| 2026-05-03 21:31 | 46.43262 | -96.59497 | 34760 ft | 412 kts | 287° |
| 2026-05-03 21:31 | 46.43995 | -96.63505 | 34989 ft | 411 kts | 287° |
| 2026-05-03 21:31 | 46.44726 | -96.67520 | 35229 ft | 411 kts | 287° |
| 2026-05-03 21:32 | 46.45454 | -96.71525 | 35458 ft | 411 kts | 287° |
| 2026-05-03 21:32 | 46.46183 | -96.75529 | 35681 ft | 411 kts | 287° |
| 2026-05-03 21:32 | 46.47643 | -96.83542 | 35784 ft | 411 kts | 287° |
| 2026-05-03 21:33 | 46.49076 | -96.91518 | 35785 ft | 412 kts | 287° |
| 2026-05-03 21:33 | 46.50522 | -96.99569 | 35786 ft | 412 kts | 287° |
| 2026-05-03 21:34 | 46.51965 | -97.07619 | 35782 ft | 412 kts | 287° |
| 2026-05-03 21:34 | 46.53401 | -97.15676 | 35783 ft | 412 kts | 287° |
| 2026-05-03 21:35 | 46.54822 | -97.23689 | 35782 ft | 412 kts | 287° |
| 2026-05-03 21:35 | 46.56251 | -97.31758 | 35757 ft | 412 kts | 287° |
| 2026-05-03 21:36 | 46.57669 | -97.39832 | 35761 ft | 413 kts | 286° |
| 2026-05-03 21:36 | 46.59080 | -97.47919 | 35764 ft | 413 kts | 286° |
| 2026-05-03 21:37 | 46.60483 | -97.55961 | 35764 ft | 413 kts | 286° |
| 2026-05-03 21:37 | 46.61888 | -97.64069 | 35768 ft | 413 kts | 286° |
| 2026-05-03 21:38 | 46.63288 | -97.72176 | 35774 ft | 413 kts | 286° |
| 2026-05-03 21:38 | 46.64684 | -97.80287 | 35778 ft | 413 kts | 286° |
| 2026-05-03 21:39 | 46.66063 | -97.88355 | 35774 ft | 413 kts | 286° |
| 2026-05-03 21:39 | 46.67441 | -97.96479 | 35769 ft | 413 kts | 286° |
| 2026-05-03 21:40 | 46.68822 | -98.04613 | 35783 ft | 414 kts | 286° |
| 2026-05-03 21:40 | 46.70189 | -98.12691 | 35777 ft | 413 kts | 286° |
| 2026-05-03 21:41 | 46.71559 | -98.20819 | 35764 ft | 413 kts | 286° |
| 2026-05-03 21:41 | 46.72916 | -98.28950 | 35777 ft | 413 kts | 286° |
| 2026-05-03 21:42 | 46.74259 | -98.37095 | 35779 ft | 413 kts | 286° |
| 2026-05-03 21:42 | 46.75597 | -98.45184 | 35775 ft | 413 kts | 286° |
| 2026-05-03 21:43 | 46.76941 | -98.53323 | 35772 ft | 413 kts | 286° |
| 2026-05-03 21:43 | 46.78280 | -98.61466 | 35748 ft | 413 kts | 286° |
| 2026-05-03 21:44 | 46.79617 | -98.69625 | 35753 ft | 413 kts | 286° |
| 2026-05-03 21:44 | 46.80943 | -98.77786 | 35757 ft | 414 kts | 286° |
| 2026-05-03 21:45 | 46.82248 | -98.85910 | 35764 ft | 414 kts | 286° |
| 2026-05-03 21:45 | 46.83561 | -98.94087 | 35788 ft | 414 kts | 286° |
| 2026-05-03 21:46 | 46.84868 | -99.02263 | 35775 ft | 413 kts | 287° |
| 2026-05-03 21:46 | 46.86167 | -99.10416 | 35789 ft | 412 kts | 287° |
| 2026-05-03 21:47 | 46.87456 | -99.18503 | 35793 ft | 411 kts | 287° |
| 2026-05-03 21:47 | 46.88741 | -99.26642 | 35794 ft | 411 kts | 286° |
| 2026-05-03 21:48 | 46.90013 | -99.34777 | 35797 ft | 410 kts | 286° |
| 2026-05-03 21:48 | 46.91278 | -99.42917 | 35796 ft | 410 kts | 286° |
| 2026-05-03 21:49 | 46.92532 | -99.50994 | 35770 ft | 410 kts | 286° |
| 2026-05-03 21:49 | 46.93790 | -99.59137 | 35779 ft | 410 kts | 286° |
| 2026-05-03 21:50 | 46.95039 | -99.67280 | 35785 ft | 410 kts | 286° |
| 2026-05-03 21:50 | 46.96286 | -99.75433 | 35786 ft | 410 kts | 286° |
| 2026-05-03 21:51 | 46.97513 | -99.83524 | 35795 ft | 410 kts | 286° |
| 2026-05-03 21:51 | 46.98749 | -99.91665 | 35767 ft | 409 kts | 286° |
| 2026-05-03 21:52 | 47.00026 | -99.99773 | 35775 ft | 407 kts | 291° |
| 2026-05-03 21:52 | 47.02111 | -100.07425 | 35784 ft | 405 kts | 295° |
| 2026-05-03 21:53 | 47.04263 | -100.15049 | 35780 ft | 404 kts | 295° |
| 2026-05-03 21:53 | 47.06390 | -100.22626 | 35782 ft | 404 kts | 295° |
| 2026-05-03 21:54 | 47.08522 | -100.30257 | 35784 ft | 404 kts | 295° |
| 2026-05-03 21:54 | 47.10653 | -100.37887 | 35766 ft | 404 kts | 295° |
| 2026-05-03 21:55 | 47.12777 | -100.45533 | 35780 ft | 404 kts | 295° |
| 2026-05-03 21:55 | 47.14883 | -100.53122 | 35784 ft | 404 kts | 295° |
| 2026-05-03 21:56 | 47.16994 | -100.60759 | 35782 ft | 403 kts | 295° |
| 2026-05-03 21:56 | 47.19100 | -100.68396 | 35778 ft | 403 kts | 295° |
| 2026-05-03 21:57 | 47.21203 | -100.76042 | 35775 ft | 403 kts | 295° |
| 2026-05-03 21:57 | 47.23284 | -100.83639 | 35749 ft | 403 kts | 295° |
| 2026-05-03 21:58 | 47.25366 | -100.91288 | 35760 ft | 403 kts | 295° |
| 2026-05-03 21:58 | 47.27447 | -100.98939 | 35779 ft | 403 kts | 295° |
| 2026-05-03 21:59 | 47.29523 | -101.06594 | 35778 ft | 402 kts | 295° |
| 2026-05-03 21:59 | 47.31572 | -101.14184 | 35785 ft | 401 kts | 295° |
| 2026-05-03 22:00 | 47.33631 | -101.21828 | 35782 ft | 401 kts | 294° |
| 2026-05-03 22:00 | 47.35678 | -101.29467 | 35744 ft | 401 kts | 294° |
| 2026-05-03 22:01 | 47.37720 | -101.37113 | 35758 ft | 400 kts | 294° |
| 2026-05-03 22:01 | 47.39744 | -101.44699 | 35745 ft | 400 kts | 294° |
| 2026-05-03 22:02 | 47.41771 | -101.52302 | 35753 ft | 400 kts | 294° |
| 2026-05-03 22:02 | 47.43803 | -101.59953 | 35767 ft | 400 kts | 294° |
| 2026-05-03 22:03 | 47.45826 | -101.67595 | 35760 ft | 399 kts | 294° |
| 2026-05-03 22:03 | 47.47826 | -101.75192 | 35740 ft | 399 kts | 294° |
| 2026-05-03 22:04 | 47.49827 | -101.82837 | 35746 ft | 399 kts | 294° |
| 2026-05-03 22:04 | 47.51832 | -101.90491 | 35752 ft | 399 kts | 294° |
| 2026-05-03 22:05 | 47.53827 | -101.98146 | 35752 ft | 399 kts | 294° |
| 2026-05-03 22:05 | 47.55805 | -102.05760 | 35756 ft | 399 kts | 294° |
| 2026-05-03 22:06 | 47.57792 | -102.13427 | 35758 ft | 399 kts | 294° |
| 2026-05-03 22:06 | 47.59775 | -102.21108 | 35761 ft | 399 kts | 294° |
| 2026-05-03 22:07 | 47.61754 | -102.28793 | 35755 ft | 399 kts | 294° |
| 2026-05-03 22:07 | 47.63718 | -102.36439 | 35762 ft | 400 kts | 294° |
| 2026-05-03 22:08 | 47.65689 | -102.44142 | 35759 ft | 400 kts | 294° |
| 2026-05-03 22:08 | 47.67649 | -102.51865 | 35752 ft | 400 kts | 294° |
| 2026-05-03 22:09 | 47.69610 | -102.59585 | 35755 ft | 400 kts | 294° |
| 2026-05-03 22:10 | 47.72530 | -102.71132 | 35732 ft | 400 kts | 293° |
| 2026-05-03 22:10 | 47.74473 | -102.78884 | 35743 ft | 400 kts | 293° |
| 2026-05-03 22:11 | 47.76414 | -102.86630 | 35748 ft | 400 kts | 293° |
| 2026-05-03 22:11 | 47.78336 | -102.94337 | 35759 ft | 400 kts | 293° |
| 2026-05-03 22:12 | 47.80266 | -103.02094 | 35763 ft | 400 kts | 293° |
| 2026-05-03 22:12 | 47.82198 | -103.09854 | 35769 ft | 400 kts | 293° |
| 2026-05-03 22:13 | 47.84126 | -103.17626 | 35769 ft | 400 kts | 293° |
| 2026-05-03 22:13 | 47.86031 | -103.25355 | 35748 ft | 400 kts | 293° |
| 2026-05-03 22:14 | 47.87946 | -103.33144 | 35778 ft | 400 kts | 293° |
| 2026-05-03 22:14 | 47.89855 | -103.40925 | 35783 ft | 399 kts | 292° |
| 2026-05-03 22:15 | 47.91752 | -103.48702 | 35780 ft | 399 kts | 292° |
| 2026-05-03 22:15 | 47.93639 | -103.56466 | 35781 ft | 398 kts | 292° |
| 2026-05-03 22:16 | 47.95500 | -103.64185 | 35771 ft | 398 kts | 292° |
| 2026-05-03 22:16 | 47.97380 | -103.71944 | 35741 ft | 398 kts | 292° |
| 2026-05-03 22:17 | 47.99256 | -103.79714 | 35739 ft | 398 kts | 292° |
| 2026-05-03 22:17 | 48.01122 | -103.87504 | 35739 ft | 398 kts | 292° |
| 2026-05-03 22:18 | 48.02971 | -103.95249 | 35747 ft | 398 kts | 292° |
| 2026-05-03 22:18 | 48.04823 | -104.03052 | 35753 ft | 399 kts | 292° |
| 2026-05-03 22:19 | 48.06673 | -104.10857 | 35770 ft | 399 kts | 292° |
| 2026-05-03 22:19 | 48.08511 | -104.18617 | 35741 ft | 398 kts | 292° |
| 2026-05-03 22:20 | 48.10358 | -104.26446 | 35733 ft | 399 kts | 292° |
| 2026-05-03 22:20 | 48.12198 | -104.34293 | 35748 ft | 400 kts | 292° |
| 2026-05-03 22:21 | 48.14030 | -104.42162 | 35750 ft | 401 kts | 292° |
| 2026-05-03 22:21 | 48.15853 | -104.49989 | 35760 ft | 401 kts | 292° |
| 2026-05-03 22:22 | 48.17688 | -104.57871 | 35762 ft | 400 kts | 292° |
| 2026-05-03 22:22 | 48.19514 | -104.65748 | 35761 ft | 400 kts | 292° |
| 2026-05-03 22:23 | 48.21329 | -104.73619 | 35739 ft | 400 kts | 292° |
| 2026-05-03 22:23 | 48.23124 | -104.81448 | 35740 ft | 400 kts | 292° |
| 2026-05-03 22:24 | 48.24920 | -104.89340 | 35751 ft | 400 kts | 292° |
| 2026-05-03 22:24 | 48.26714 | -104.97236 | 35754 ft | 400 kts | 292° |
| 2026-05-03 22:25 | 48.28506 | -105.05139 | 35752 ft | 400 kts | 292° |
| 2026-05-03 22:25 | 48.30282 | -105.12993 | 35769 ft | 400 kts | 292° |
| 2026-05-03 22:26 | 48.32062 | -105.20888 | 35747 ft | 398 kts | 291° |
| 2026-05-03 22:26 | 48.33839 | -105.28762 | 35750 ft | 398 kts | 291° |
| 2026-05-03 22:27 | 48.35607 | -105.36644 | 35759 ft | 397 kts | 291° |
| 2026-05-03 22:27 | 48.37366 | -105.44518 | 35760 ft | 397 kts | 291° |
| 2026-05-03 22:28 | 48.40181 | -105.57230 | 35765 ft | 397 kts | 291° |
| 2026-05-03 22:28 | 48.43656 | -105.73028 | 35740 ft | 397 kts | 291° |
| 2026-05-03 22:29 | 48.47111 | -105.88851 | 35755 ft | 398 kts | 291° |
| 2026-05-03 22:29 | 48.50554 | -106.04708 | 35766 ft | 398 kts | 291° |
| 2026-05-03 22:30 | 48.53949 | -106.20463 | 35770 ft | 398 kts | 291° |
| 2026-05-03 22:30 | 48.57344 | -106.36386 | 35746 ft | 399 kts | 291° |
| 2026-05-03 22:31 | 48.60738 | -106.52359 | 35784 ft | 399 kts | 291° |
| 2026-05-03 22:31 | 48.64091 | -106.68307 | 35781 ft | 398 kts | 291° |
| 2026-05-03 22:32 | 48.67398 | -106.84169 | 35762 ft | 398 kts | 290° |
| 2026-05-03 22:32 | 48.70712 | -107.00160 | 35789 ft | 398 kts | 290° |
| 2026-05-03 22:33 | 48.73981 | -107.16162 | 35802 ft | 396 kts | 290° |
| 2026-05-03 22:33 | 48.77233 | -107.32096 | 35801 ft | 395 kts | 290° |
| 2026-05-03 22:34 | 48.80433 | -107.47937 | 35806 ft | 395 kts | 290° |
| 2026-05-03 22:34 | 48.83626 | -107.63894 | 35822 ft | 395 kts | 290° |
| 2026-05-03 22:35 | 48.86803 | -107.79824 | 35787 ft | 393 kts | 290° |
| 2026-05-03 22:35 | 48.89939 | -107.95733 | 35797 ft | 393 kts | 290° |
| 2026-05-03 22:36 | 48.93023 | -108.11542 | 35803 ft | 392 kts | 290° |
| 2026-05-03 22:36 | 48.96098 | -108.27462 | 35829 ft | 392 kts | 290° |
| 2026-05-03 22:37 | 48.99173 | -108.43411 | 35791 ft | 393 kts | 289° |
| 2026-05-03 22:37 | 49.00920 | -108.51246 | 35787 ft | 390 kts | 300° |
| 2026-05-03 22:37 | 49.03564 | -108.58447 | 35797 ft | 389 kts | 301° |
| 2026-05-03 22:38 | 49.08783 | -108.72923 | 35807 ft | 390 kts | 301° |
| 2026-05-03 22:38 | 49.13979 | -108.87315 | 35832 ft | 389 kts | 301° |
| 2026-05-03 22:39 | 49.19170 | -109.01806 | 35803 ft | 389 kts | 301° |
| 2026-05-03 22:39 | 49.24354 | -109.16381 | 35818 ft | 390 kts | 301° |
| 2026-05-03 22:40 | 49.29524 | -109.30980 | 35829 ft | 390 kts | 301° |
| 2026-05-03 22:40 | 49.33465 | -109.42142 | 35832 ft | 390 kts | 300° |
| 2026-05-03 22:41 | 49.36044 | -109.49458 | 35833 ft | 390 kts | 300° |
| 2026-05-03 22:41 | 49.38613 | -109.56794 | 35807 ft | 390 kts | 300° |
| 2026-05-03 22:42 | 49.41176 | -109.64148 | 35808 ft | 391 kts | 300° |
| 2026-05-03 22:42 | 49.43749 | -109.71526 | 35822 ft | 392 kts | 300° |
| 2026-05-03 22:43 | 49.46292 | -109.78857 | 35827 ft | 392 kts | 300° |
| 2026-05-03 22:43 | 49.48860 | -109.86261 | 35828 ft | 392 kts | 300° |
| 2026-05-03 22:44 | 49.51419 | -109.93675 | 35832 ft | 392 kts | 300° |
| 2026-05-03 22:44 | 49.53974 | -110.01095 | 35834 ft | 393 kts | 300° |
| 2026-05-03 22:45 | 49.56506 | -110.08486 | 35835 ft | 393 kts | 300° |
| 2026-05-03 22:45 | 49.59045 | -110.15938 | 35816 ft | 393 kts | 300° |
| 2026-05-03 22:46 | 49.61594 | -110.23409 | 35821 ft | 394 kts | 300° |
| 2026-05-03 22:46 | 49.64156 | -110.30913 | 35829 ft | 396 kts | 300° |
| 2026-05-03 22:47 | 49.66700 | -110.38384 | 35833 ft | 396 kts | 300° |
| 2026-05-03 22:47 | 49.69256 | -110.45933 | 35843 ft | 397 kts | 300° |
| 2026-05-03 22:48 | 49.71800 | -110.53495 | 35847 ft | 397 kts | 300° |
| 2026-05-03 22:48 | 49.74340 | -110.61074 | 35867 ft | 396 kts | 300° |
| 2026-05-03 22:49 | 49.76860 | -110.68579 | 35868 ft | 396 kts | 300° |
| 2026-05-03 22:49 | 49.79394 | -110.76140 | 35866 ft | 395 kts | 300° |
| 2026-05-03 22:50 | 49.81916 | -110.83699 | 35827 ft | 395 kts | 300° |
| 2026-05-03 22:50 | 49.84437 | -110.91278 | 35830 ft | 396 kts | 300° |
| 2026-05-03 22:51 | 49.86955 | -110.98876 | 35842 ft | 397 kts | 300° |
| 2026-05-03 22:51 | 49.89452 | -111.06460 | 35863 ft | 397 kts | 300° |
| 2026-05-03 22:52 | 49.91969 | -111.14078 | 35865 ft | 397 kts | 300° |
| 2026-05-03 22:52 | 49.94485 | -111.21707 | 35870 ft | 397 kts | 300° |
| 2026-05-03 22:53 | 49.96984 | -111.29344 | 35871 ft | 397 kts | 300° |
| 2026-05-03 22:53 | 49.99520 | -111.36883 | 35869 ft | 396 kts | 302° |
| 2026-05-03 22:54 | 50.02251 | -111.44300 | 35869 ft | 395 kts | 302° |
| 2026-05-03 22:54 | 50.05005 | -111.51710 | 35846 ft | 396 kts | 302° |
| 2026-05-03 22:55 | 50.07720 | -111.59166 | 35851 ft | 396 kts | 302° |
| 2026-05-03 22:55 | 50.10414 | -111.66663 | 35855 ft | 397 kts | 302° |
| 2026-05-03 22:56 | 50.13082 | -111.74115 | 35826 ft | 397 kts | 302° |
| 2026-05-03 22:56 | 50.14430 | -111.77880 | 35562 ft | 397 kts | 302° |
| 2026-05-03 22:56 | 50.15773 | -111.81633 | 35308 ft | 396 kts | 302° |
| 2026-05-03 22:56 | 50.17113 | -111.85384 | 35054 ft | 396 kts | 302° |
| 2026-05-03 22:57 | 50.18449 | -111.89130 | 34560 ft | 395 kts | 302° |
| 2026-05-03 22:57 | 50.19790 | -111.92888 | 33814 ft | 398 kts | 302° |
| 2026-05-03 22:57 | 50.21142 | -111.96683 | 32977 ft | 400 kts | 302° |
| 2026-05-03 22:57 | 50.22492 | -112.00487 | 32183 ft | 401 kts | 302° |
| 2026-05-03 22:58 | 50.23847 | -112.04308 | 31364 ft | 403 kts | 302° |
| 2026-05-03 22:58 | 50.25184 | -112.08089 | 30640 ft | 404 kts | 302° |
| 2026-05-03 22:58 | 50.26543 | -112.11939 | 29905 ft | 404 kts | 301° |
| 2026-05-03 22:58 | 50.27886 | -112.15757 | 29334 ft | 398 kts | 301° |
| 2026-05-03 22:59 | 50.29206 | -112.19518 | 28832 ft | 391 kts | 302° |
| 2026-05-03 22:59 | 50.30506 | -112.23221 | 28307 ft | 386 kts | 302° |
| 2026-05-03 22:59 | 50.31789 | -112.26874 | 27797 ft | 381 kts | 301° |
| 2026-05-03 22:59 | 50.33054 | -112.30481 | 27293 ft | 375 kts | 301° |
| 2026-05-03 23:00 | 50.34303 | -112.34048 | 26786 ft | 371 kts | 301° |
| 2026-05-03 23:00 | 50.35535 | -112.37565 | 26291 ft | 366 kts | 301° |
| 2026-05-03 23:00 | 50.36754 | -112.41044 | 25807 ft | 362 kts | 301° |
| 2026-05-03 23:00 | 50.37956 | -112.44484 | 25338 ft | 358 kts | 301° |
| 2026-05-03 23:01 | 50.39129 | -112.47845 | 24867 ft | 354 kts | 301° |
| 2026-05-03 23:01 | 50.40301 | -112.51212 | 24402 ft | 350 kts | 301° |
| 2026-05-03 23:01 | 50.41459 | -112.54542 | 23943 ft | 346 kts | 301° |
| 2026-05-03 23:01 | 50.42609 | -112.57850 | 23502 ft | 350 kts | 301° |
| 2026-05-03 23:02 | 50.43794 | -112.61256 | 23008 ft | 359 kts | 301° |
| 2026-05-03 23:02 | 50.44985 | -112.64700 | 22554 ft | 359 kts | 301° |
| 2026-05-03 23:02 | 50.46172 | -112.68141 | 22132 ft | 358 kts | 301° |
| 2026-05-03 23:02 | 50.47355 | -112.71572 | 21716 ft | 356 kts | 301° |
| 2026-05-03 23:03 | 50.48513 | -112.74934 | 21313 ft | 354 kts | 301° |
| 2026-05-03 23:03 | 50.49682 | -112.78329 | 20916 ft | 353 kts | 301° |
| 2026-05-03 23:03 | 50.50847 | -112.81708 | 20527 ft | 349 kts | 301° |
| 2026-05-03 23:03 | 50.51997 | -112.85050 | 20129 ft | 347 kts | 301° |
| 2026-05-03 23:04 | 50.53141 | -112.88383 | 19728 ft | 347 kts | 301° |
| 2026-05-03 23:04 | 50.54283 | -112.91720 | 19344 ft | 347 kts | 301° |
| 2026-05-03 23:04 | 50.55420 | -112.95050 | 18947 ft | 345 kts | 301° |
| 2026-05-03 23:04 | 50.56551 | -112.98368 | 18557 ft | 344 kts | 301° |
| 2026-05-03 23:05 | 50.57663 | -113.01629 | 18159 ft | 342 kts | 301° |
| 2026-05-03 23:05 | 50.58785 | -113.04915 | 17811 ft | 341 kts | 301° |
| 2026-05-03 23:05 | 50.59903 | -113.08194 | 17395 ft | 339 kts | 301° |
| 2026-05-03 23:05 | 50.61016 | -113.11462 | 16984 ft | 338 kts | 300° |
| 2026-05-03 23:06 | 50.62127 | -113.14727 | 16562 ft | 337 kts | 300° |
| 2026-05-03 23:06 | 50.63230 | -113.17976 | 16148 ft | 336 kts | 299° |
| 2026-05-03 23:06 | 50.64329 | -113.21216 | 15729 ft | 335 kts | 299° |
| 2026-05-03 23:06 | 50.65423 | -113.24447 | 15312 ft | 334 kts | 298° |
| 2026-05-03 23:07 | 50.66498 | -113.27636 | 14897 ft | 334 kts | 298° |
| 2026-05-03 23:07 | 50.67583 | -113.30863 | 14470 ft | 333 kts | 297° |
| 2026-05-03 23:07 | 50.68667 | -113.34091 | 14050 ft | 333 kts | 297° |
| 2026-05-03 23:07 | 50.69923 | -113.37145 | 13610 ft | 333 kts | 308° |
| 2026-05-03 23:08 | 50.71561 | -113.39717 | 13100 ft | 333 kts | 317° |
| 2026-05-03 23:08 | 50.73319 | -113.42079 | 12621 ft | 331 kts | 317° |
| 2026-05-03 23:08 | 50.75064 | -113.44437 | 12150 ft | 329 kts | 318° |
| 2026-05-03 23:08 | 50.76795 | -113.46795 | 11674 ft | 327 kts | 318° |
| 2026-05-03 23:09 | 50.78508 | -113.49137 | 11203 ft | 325 kts | 318° |
| 2026-05-03 23:09 | 50.80209 | -113.51466 | 10729 ft | 323 kts | 319° |
| 2026-05-03 23:09 | 50.81881 | -113.53751 | 10533 ft | 311 kts | 319° |
| 2026-05-03 23:09 | 50.83477 | -113.55932 | 10412 ft | 294 kts | 319° |
| 2026-05-03 23:10 | 50.84955 | -113.57952 | 10222 ft | 277 kts | 320° |
| 2026-05-03 23:10 | 50.86394 | -113.59925 | 9955 ft | 270 kts | 320° |
| 2026-05-03 23:10 | 50.87800 | -113.61853 | 9834 ft | 267 kts | 320° |
| 2026-05-03 23:10 | 50.89204 | -113.63776 | 9705 ft | 267 kts | 320° |
| 2026-05-03 23:11 | 50.90576 | -113.65661 | 9565 ft | 253 kts | 320° |
| 2026-05-03 23:11 | 50.91747 | -113.67614 | 9417 ft | 239 kts | 307° |
| 2026-05-03 23:11 | 50.92508 | -113.69918 | 8978 ft | 234 kts | 292° |
| 2026-05-03 23:11 | 50.92822 | -113.72475 | 8821 ft | 241 kts | 277° |
| 2026-05-03 23:12 | 50.92820 | -113.75133 | 8648 ft | 241 kts | 274° |
| 2026-05-03 23:12 | 50.92802 | -113.77816 | 8499 ft | 250 kts | 274° |
| 2026-05-03 23:12 | 50.92448 | -113.80543 | 8344 ft | 261 kts | 255° |
| 2026-05-03 23:12 | 50.91973 | -113.83201 | 8177 ft | 241 kts | 269° |
| 2026-05-03 23:13 | 50.91861 | -113.85756 | 8058 ft | 225 kts | 273° |
| 2026-05-03 23:13 | 50.91788 | -113.88193 | 7810 ft | 219 kts | 273° |
| 2026-05-03 23:13 | 50.91730 | -113.90526 | 7707 ft | 204 kts | 273° |
| 2026-05-03 23:13 | 50.91656 | -113.92686 | 7580 ft | 189 kts | 272° |
| 2026-05-03 23:14 | 50.91567 | -113.94691 | 7449 ft | 176 kts | 275° |
| 2026-05-03 23:14 | 50.91769 | -113.96458 | 7263 ft | 155 kts | 310° |
| 2026-05-03 23:14 | 50.92476 | -113.97683 | 7009 ft | 149 kts | 322° |
| 2026-05-03 23:14 | 50.93320 | -113.98585 | 6628 ft | 145 kts | 337° |
| 2026-05-03 23:15 | 50.94311 | -113.98864 | 6515 ft | 148 kts | 355° |
| 2026-05-03 23:15 | 50.95343 | -113.98966 | 6500 ft | 153 kts | 356° |
| 2026-05-03 23:15 | 50.96410 | -113.99018 | 6382 ft | 153 kts | 358° |
| 2026-05-03 23:15 | 50.97477 | -113.99039 | 6220 ft | 152 kts | 358° |
| 2026-05-03 23:16 | 50.98544 | -113.99048 | 6025 ft | 154 kts | 358° |
| 2026-05-03 23:16 | 50.99599 | -113.99050 | 5829 ft | 151 kts | 359° |
| 2026-05-03 23:16 | 51.00655 | -113.99050 | 5637 ft | 152 kts | 358° |
| 2026-05-03 23:16 | 51.01720 | -113.99049 | 5422 ft | 153 kts | 359° |
| 2026-05-03 23:17 | 51.02770 | -113.99048 | 5231 ft | 153 kts | 358° |
| 2026-05-03 23:17 | 51.03822 | -113.99047 | 5036 ft | 150 kts | 359° |
| 2026-05-03 23:17 | 51.04847 | -113.99045 | 4851 ft | 149 kts | 358° |
| 2026-05-03 23:17 | 51.05896 | -113.99044 | 4646 ft | 152 kts | 359° |
| 2026-05-03 23:18 | 51.06939 | -113.99042 | 4449 ft | 149 kts | 359° |
| 2026-05-03 23:18 | 51.07982 | -113.99040 | 4234 ft | 148 kts | 1° |
| 2026-05-03 23:18 | 51.09014 | -113.99038 | 4012 ft | 150 kts | 1° |
| 2026-05-03 23:18 | 51.10065 | -113.99039 | 3817 ft | 150 kts | 1° |
| 2026-05-03 23:19 | 51.11107 | -113.99045 | 3618 ft | 148 kts | 3° |
| 2026-05-03 23:19 | 51.12070 | -113.99023 | 3565 ft | 121 kts | 359° |
| 2026-05-03 23:19 | 51.12694 | -113.99034 | 3563 ft | 63 kts | 0° |
| 2026-05-03 23:19 | 51.12922 | -113.99063 | 3564 ft | 30 kts | 346° |
| 2026-05-03 23:20 | 51.13091 | -113.99189 | 3560 ft | 16 kts | 324° |
| 2026-05-03 23:20 | 51.13091 | -113.99291 | 3560 ft | 11 kts | 212° |
| 2026-05-03 23:20 | 51.13002 | -113.99303 | 3561 ft | 15 kts | 179° |
| 2026-05-03 23:20 | 51.12890 | -113.99306 | 3558 ft | 18 kts | 180° |
| 2026-05-03 23:21 | 51.12755 | -113.99298 | 3560 ft | 21 kts | 177° |
| 2026-05-03 23:21 | 51.12628 | -113.99327 | 3561 ft | 17 kts | 221° |
| 2026-05-03 23:21 | 51.12611 | -113.99487 | 3560 ft | 16 kts | 270° |
| 2026-05-03 23:21 | 51.12610 | -113.99688 | 3555 ft | 20 kts | 269° |
| 2026-05-03 23:22 | 51.12613 | -114.00134 | 3559 ft | 22 kts | 270° |
| 2026-05-03 23:22 | 51.12613 | -114.00377 | 3559 ft | 23 kts | 270° |
| 2026-05-03 23:22 | 51.12617 | -114.00598 | 3559 ft | 14 kts | 281° |
| 2026-05-03 23:23 | 51.12690 | -114.00644 | 3559 ft | 12 kts | 350° |
| 2026-05-03 23:23 | 51.12740 | -114.00733 | 3559 ft | 12 kts | 277° |
| 2026-05-03 23:23 | 51.12759 | -114.00811 | 3559 ft | 5 kts | 351° |
| 2026-05-03 23:23 | 51.12800 | -114.00815 | 3559 ft | 5 kts | 357° |
| 2026-05-03 23:24 | 51.12811 | -114.00816 | 3559 ft | 0 kts | 357° |